N656B KRBL-KRBL
Flight info
| Callsign | N656B |
|---|---|
| Flight time | N/A |
| Altitude | 2500 |
| Route | VFR |
| Aircraft | C172/L-V/N |
Departure
| Time | 2026-04-17 22:11 |
|---|---|
| Airport | Red Bluff Municipal Airport (KRBL) |
Arrival
| Time | N/A |
|---|---|
| Airport | Red Bluff Municipal Airport (KRBL) |
| Time | Latitude | Longitude | Altitude | Speed | Heading |
|---|---|---|---|---|---|
| 2026-04-17 22:05 | 40.15329 | -122.25089 | 359 ft | 0 kts | 324° |
| 2026-04-17 22:08 | 40.15332 | -122.25091 | 359 ft | 4 kts | 336° |
| 2026-04-17 22:08 | 40.15345 | -122.25113 | 357 ft | 4 kts | 253° |
| 2026-04-17 22:08 | 40.15311 | -122.25114 | 350 ft | 8 kts | 167° |
| 2026-04-17 22:08 | 40.15242 | -122.25097 | 350 ft | 12 kts | 168° |
| 2026-04-17 22:09 | 40.15153 | -122.25072 | 349 ft | 14 kts | 167° |
| 2026-04-17 22:09 | 40.15053 | -122.25043 | 349 ft | 15 kts | 169° |
| 2026-04-17 22:09 | 40.14958 | -122.25035 | 349 ft | 13 kts | 197° |
| 2026-04-17 22:09 | 40.14913 | -122.25116 | 348 ft | 10 kts | 264° |
| 2026-04-17 22:10 | 40.14923 | -122.25200 | 353 ft | 10 kts | 352° |
| 2026-04-17 22:10 | 40.15104 | -122.25239 | 349 ft | 49 kts | 349° |
| 2026-04-17 22:10 | 40.15528 | -122.25401 | 465 ft | 67 kts | 341° |
| 2026-04-17 22:10 | 40.15982 | -122.25647 | 640 ft | 73 kts | 336° |
| 2026-04-17 22:11 | 40.16419 | -122.25870 | 996 ft | 70 kts | 343° |
| 2026-04-17 22:11 | 40.16797 | -122.26138 | 1394 ft | 65 kts | 311° |
| 2026-04-17 22:11 | 40.16751 | -122.26804 | 1587 ft | 89 kts | 230° |
| 2026-04-17 22:11 | 40.16164 | -122.26704 | 1821 ft | 99 kts | 134° |
| 2026-04-17 22:12 | 40.15793 | -122.26032 | 2148 ft | 95 kts | 102° |
| 2026-04-17 22:12 | 40.15808 | -122.25186 | 2435 ft | 78 kts | 58° |
| 2026-04-17 22:12 | 40.16279 | -122.24998 | 2436 ft | 99 kts | 328° |
| 2026-04-17 22:12 | 40.16322 | -122.25659 | 2797 ft | 102 kts | 214° |
| 2026-04-17 22:13 | 40.15650 | -122.25228 | 2820 ft | 110 kts | 90° |
| 2026-04-17 22:13 | 40.16065 | -122.24578 | 2873 ft | 107 kts | 14° |
| 2026-04-17 22:13 | 40.16816 | -122.24456 | 2838 ft | 119 kts | 9° |
| 2026-04-17 22:13 | 40.17530 | -122.24044 | 2884 ft | 123 kts | 24° |
| 2026-04-17 22:14 | 40.18377 | -122.23627 | 2678 ft | 126 kts | 13° |
| 2026-04-17 22:14 | 40.19193 | -122.23399 | 2611 ft | 123 kts | 2° |
| 2026-04-17 22:14 | 40.20069 | -122.23405 | 2529 ft | 124 kts | 358° |
| 2026-04-17 22:14 | 40.20912 | -122.23428 | 2606 ft | 122 kts | 352° |
| 2026-04-17 22:15 | 40.21674 | -122.23950 | 2425 ft | 125 kts | 316° |
| 2026-04-17 22:15 | 40.22024 | -122.24956 | 2098 ft | 134 kts | 275° |
| 2026-04-17 22:15 | 40.21788 | -122.26191 | 1826 ft | 132 kts | 259° |
| 2026-04-17 22:15 | 40.21501 | -122.27304 | 1577 ft | 136 kts | 250° |
| 2026-04-17 22:16 | 40.21056 | -122.28417 | 1289 ft | 138 kts | 244° |
| 2026-04-17 22:16 | 40.20587 | -122.29485 | 1038 ft | 133 kts | 245° |
| 2026-04-17 22:16 | 40.20360 | -122.30587 | 971 ft | 114 kts | 278° |
| 2026-04-17 22:16 | 40.20651 | -122.31471 | 876 ft | 103 kts | 315° |
| 2026-04-17 22:17 | 40.21241 | -122.31778 | 1027 ft | 92 kts | 1° |
| 2026-04-17 22:17 | 40.21824 | -122.31489 | 1040 ft | 100 kts | 41° |
| 2026-04-17 22:17 | 40.22133 | -122.30677 | 1289 ft | 86 kts | 56° |
| 2026-04-17 22:17 | 40.22476 | -122.29988 | 1267 ft | 107 kts | 48° |
| 2026-04-17 22:18 | 40.22938 | -122.29324 | 1550 ft | 87 kts | 29° |
| 2026-04-17 22:18 | 40.23522 | -122.28961 | 1605 ft | 100 kts | 14° |
| 2026-04-17 22:18 | 40.24154 | -122.29052 | 1883 ft | 88 kts | 332° |
| 2026-04-17 22:18 | 40.24730 | -122.29345 | 2107 ft | 93 kts | 338° |
| 2026-04-17 22:19 | 40.25285 | -122.29774 | 2328 ft | 90 kts | 329° |
| 2026-04-17 22:19 | 40.25943 | -122.29908 | 2417 ft | 103 kts | 2° |
| 2026-04-17 22:19 | 40.26639 | -122.29793 | 2423 ft | 111 kts | 4° |
| 2026-04-17 22:19 | 40.27428 | -122.29564 | 2317 ft | 113 kts | 18° |
| 2026-04-17 22:20 | 40.28140 | -122.29183 | 2111 ft | 113 kts | 18° |
| 2026-04-17 22:20 | 40.28808 | -122.28632 | 2080 ft | 105 kts | 34° |
| 2026-04-17 22:20 | 40.29397 | -122.28169 | 2002 ft | 104 kts | 19° |
| 2026-04-17 22:20 | 40.30152 | -122.28022 | 1818 ft | 107 kts | 353° |
| 2026-04-17 22:21 | 40.30845 | -122.28269 | 1780 ft | 100 kts | 339° |
| 2026-04-17 22:21 | 40.31516 | -122.28600 | 1690 ft | 105 kts | 339° |
| 2026-04-17 22:21 | 40.32162 | -122.28976 | 1668 ft | 100 kts | 334° |
| 2026-04-17 22:21 | 40.32807 | -122.29430 | 1560 ft | 108 kts | 336° |
| 2026-04-17 22:22 | 40.33505 | -122.29695 | 1538 ft | 104 kts | 353° |
| 2026-04-17 22:22 | 40.34237 | -122.29609 | 1460 ft | 109 kts | 15° |
| 2026-04-17 22:22 | 40.34884 | -122.29159 | 1457 ft | 105 kts | 30° |
| 2026-04-17 22:22 | 40.35514 | -122.28728 | 1436 ft | 101 kts | 17° |
| 2026-04-17 22:23 | 40.36226 | -122.28495 | 1265 ft | 108 kts | 10° |
| 2026-04-17 22:23 | 40.36943 | -122.28343 | 1203 ft | 103 kts | 1° |
| 2026-04-17 22:23 | 40.37685 | -122.28397 | 1036 ft | 109 kts | 355° |
| 2026-04-17 22:23 | 40.38405 | -122.28571 | 1050 ft | 104 kts | 349° |
| 2026-04-17 22:24 | 40.39138 | -122.28491 | 998 ft | 107 kts | 15° |
| 2026-04-17 22:24 | 40.39818 | -122.28258 | 1126 ft | 98 kts | 8° |
| 2026-04-17 22:24 | 40.40468 | -122.27960 | 1101 ft | 99 kts | 19° |
| 2026-04-17 22:24 | 40.41157 | -122.28025 | 1004 ft | 103 kts | 341° |
| 2026-04-17 22:25 | 40.41842 | -122.28199 | 1022 ft | 100 kts | 352° |
| 2026-04-17 22:25 | 40.42372 | -122.28705 | 934 ft | 107 kts | 306° |
| 2026-04-17 22:25 | 40.42842 | -122.29368 | 1006 ft | 97 kts | 328° |
| 2026-04-17 22:25 | 40.43480 | -122.29659 | 1028 ft | 97 kts | 359° |
| 2026-04-17 22:26 | 40.44158 | -122.29561 | 1003 ft | 99 kts | 13° |
| 2026-04-17 22:26 | 40.44844 | -122.29482 | 995 ft | 101 kts | 359° |
| 2026-04-17 22:26 | 40.45530 | -122.29514 | 1078 ft | 95 kts | 359° |
| 2026-04-17 22:26 | 40.46170 | -122.29521 | 1123 ft | 87 kts | 1° |
| 2026-04-17 22:27 | 40.46758 | -122.29491 | 1088 ft | 83 kts | 1° |
| 2026-04-17 22:27 | 40.47300 | -122.29494 | 1064 ft | 77 kts | 0° |
| 2026-04-17 22:27 | 40.47841 | -122.29500 | 1012 ft | 77 kts | 1° |
| 2026-04-17 22:27 | 40.48399 | -122.29498 | 887 ft | 82 kts | 2° |
| 2026-04-17 22:28 | 40.48970 | -122.29492 | 726 ft | 81 kts | 0° |
| 2026-04-17 22:28 | 40.49507 | -122.29497 | 622 ft | 76 kts | 2° |
| 2026-04-17 22:28 | 40.50036 | -122.29492 | 539 ft | 75 kts | 1° |
| 2026-04-17 22:28 | 40.50539 | -122.29488 | 501 ft | 68 kts | 359° |
| 2026-04-17 22:29 | 40.50899 | -122.29487 | 502 ft | 38 kts | 1° |
| 2026-04-17 22:29 | 40.51116 | -122.29485 | 503 ft | 27 kts | 358° |
| 2026-04-17 22:29 | 40.51275 | -122.29485 | 503 ft | 22 kts | 1° |
| 2026-04-17 22:29 | 40.51406 | -122.29505 | 504 ft | 15 kts | 320° |
| 2026-04-17 22:30 | 40.51416 | -122.29625 | 502 ft | 12 kts | 228° |
| 2026-04-17 22:30 | 40.51365 | -122.29623 | 503 ft | 4 kts | 184° |
| 2026-04-17 22:31 | 40.51352 | -122.29625 | 503 ft | 8 kts | 186° |
| 2026-04-17 22:31 | 40.51252 | -122.29630 | 502 ft | 19 kts | 184° |
| 2026-04-17 22:32 | 40.51113 | -122.29630 | 501 ft | 21 kts | 189° |
| 2026-04-17 22:32 | 40.50980 | -122.29633 | 504 ft | 17 kts | 180° |
| 2026-04-17 22:32 | 40.50879 | -122.29677 | 504 ft | 16 kts | 227° |
| 2026-04-17 22:32 | 40.50794 | -122.29777 | 504 ft | 16 kts | 221° |
| 2026-04-17 22:33 | 40.50716 | -122.29862 | 503 ft | 14 kts | 179° |
| 2026-04-17 22:33 | 40.50627 | -122.29869 | 500 ft | 13 kts | 238° |
| 2026-04-17 22:33 | 40.50623 | -122.29940 | 500 ft | 0 kts | 265° |